Time;durP1;ratioP1;P1;durP2;ratioP2;P2;SDS_P1;SDS_P2;PMS_P1;PMS_P2;Temp;Humidity;BMP_temperature;BMP_pressure;BME280_temperature;BME280_humidity;BME280_pressure;Samples;Min_cycle;Max_cycle;Signal;HPM_P1;HPM_P2
2023/03/22 00:00:36;;;;;;;56.20;31.17;;;;;;;-145.18;100.00;60484.78;5032193;28;20032;-60
2023/03/22 00:03:02;;;;;;;53.17;30.07;;;;;;;-145.18;100.00;60484.78;5033727;28;20054;-60
2023/03/22 00:05:31;;;;;;;53.50;28.63;;;;;;;-145.18;100.00;60484.78;5035220;28;20075;-59
2023/03/22 00:07:56;;;;;;;52.80;28.77;;;;;;;-145.18;100.00;60484.78;5035031;28;20034;-59
2023/03/22 00:10:27;;;;;;;54.07;28.93;;;;;;;-145.18;100.00;60484.78;5035490;28;20075;-59
2023/03/22 00:12:53;;;;;;;48.38;27.00;;;;;;;-145.18;100.00;60484.78;5036298;28;20029;-60
2023/03/22 00:15:19;;;;;;;50.93;26.80;;;;;;;-145.18;100.00;60484.78;5033532;28;20034;-59
2023/03/22 00:17:44;;;;;;;46.90;26.10;;;;;;;-145.18;100.00;60484.78;5034934;28;20104;-59
2023/03/22 00:20:11;;;;;;;43.07;25.63;;;;;;;-145.18;100.00;60484.78;5033487;28;20025;-59
2023/03/22 00:22:38;;;;;;;40.67;24.40;;;;;;;-145.18;100.00;60484.78;5034032;28;20029;-59
2023/03/22 00:25:05;;;;;;;42.33;24.10;;;;;;;-145.18;100.00;60484.78;5031498;28;20100;-59
2023/03/22 00:27:31;;;;;;;41.23;23.43;;;;;;;-145.18;100.00;60484.78;5034201;28;20026;-59
2023/03/22 00:29:56;;;;;;;40.60;23.60;;;;;;;-145.18;100.00;60484.78;5033572;28;20087;-59
2023/03/22 00:32:22;;;;;;;37.60;22.73;;;;;;;-145.18;100.00;60484.78;5033763;28;20425;-59
2023/03/22 00:34:47;;;;;;;38.23;23.07;;;;;;;-145.18;100.00;60484.78;5034893;28;20029;-59
2023/03/22 00:37:15;;;;;;;36.97;21.67;;;;;;;-145.18;100.00;60484.78;5034086;28;20370;-59
2023/03/22 00:39:41;;;;;;;32.77;21.13;;;;;;;-145.18;100.00;60484.78;5033667;28;20104;-59
2023/03/22 00:42:06;;;;;;;37.07;20.30;;;;;;;-145.18;100.00;60484.78;5032205;28;20446;-59
2023/03/22 00:44:31;;;;;;;35.70;19.47;;;;;;;-145.18;100.00;60484.78;5034608;28;20045;-60
2023/03/22 00:46:57;;;;;;;37.23;20.23;;;;;;;-145.18;100.00;60484.78;5032271;28;20033;-59
2023/03/22 00:49:24;;;;;;;33.67;19.10;;;;;;;-145.18;100.00;60484.78;5032994;28;20031;-60
2023/03/22 00:51:49;;;;;;;31.80;19.20;;;;;;;-145.18;100.00;60484.78;5034203;28;20492;-59
2023/03/22 00:54:16;;;;;;;31.77;18.67;;;;;;;-145.18;100.00;60484.78;5032185;28;20104;-59
2023/03/22 00:56:44;;;;;;;30.63;19.30;;;;;;;-145.18;100.00;60484.78;5026349;28;20032;-59
2023/03/22 00:59:10;;;;;;;31.57;18.57;;;;;;;-145.18;100.00;60484.78;5032732;28;20021;-59
2023/03/22 01:01:36;;;;;;;34.50;19.33;;;;;;;-145.18;100.00;60484.78;5029021;28;20523;-59
2023/03/22 01:04:02;;;;;;;27.73;17.67;;;;;;;-145.18;100.00;60484.78;5035369;28;20108;-59
2023/03/22 01:06:27;;;;;;;30.23;18.57;;;;;;;-145.18;100.00;60484.78;5033757;28;20413;-59
2023/03/22 01:08:53;;;;;;;29.43;18.00;;;;;;;-145.18;100.00;60484.78;5032460;28;20038;-59
2023/03/22 01:11:19;;;;;;;29.63;17.93;;;;;;;-145.18;100.00;60484.78;5031550;28;20171;-59
2023/03/22 01:13:46;;;;;;;29.60;18.03;;;;;;;-145.18;100.00;60484.78;5032327;28;20054;-59
2023/03/22 01:16:12;;;;;;;28.87;18.03;;;;;;;-145.18;100.00;60484.78;5033234;28;20017;-59
2023/03/22 01:18:38;;;;;;;31.10;17.97;;;;;;;-145.18;100.00;60484.78;5033731;28;20409;-59
2023/03/22 01:21:04;;;;;;;27.23;17.33;;;;;;;-145.18;100.00;60484.78;5030981;28;20025;-59
2023/03/22 01:23:30;;;;;;;32.77;17.87;;;;;;;-145.18;100.00;60484.78;5034296;28;20478;-59
2023/03/22 01:25:56;;;;;;;29.10;18.60;;;;;;;-145.18;100.00;60484.78;5033404;28;20111;-59
2023/03/22 01:28:21;;;;;;;30.57;17.47;;;;;;;-145.18;100.00;60484.78;5034109;28;20083;-59
2023/03/22 01:30:47;;;;;;;28.10;17.87;;;;;;;-145.18;100.00;60484.78;5030636;28;20045;-59
2023/03/22 01:33:12;;;;;;;26.23;16.10;;;;;;;-145.18;100.00;60484.78;5023050;28;20371;-59
2023/03/22 01:35:38;;;;;;;26.27;16.30;;;;;;;-145.18;100.00;60484.78;5031533;28;20170;-59
2023/03/22 01:38:03;;;;;;;29.27;16.90;;;;;;;-145.18;100.00;60484.78;5033955;28;20021;-58
2023/03/22 01:40:29;;;;;;;29.40;16.43;;;;;;;-145.18;100.00;60484.78;5031031;28;20068;-60
2023/03/22 01:42:55;;;;;;;27.77;16.73;;;;;;;-145.18;100.00;60484.78;5031891;28;20026;-58
2023/03/22 01:45:33;;;;;;;24.83;16.00;;;;;;;-145.18;100.00;60484.78;5033909;28;20156;-59
2023/03/22 01:48:08;;;;;;;27.53;16.40;;;;;;;-145.18;100.00;60484.78;5034016;28;20055;-59
2023/03/22 01:50:36;;;;;;;26.47;15.90;;;;;;;-145.18;100.00;60484.78;5032063;28;20108;-59
2023/03/22 01:53:03;;;;;;;23.10;14.73;;;;;;;-145.18;100.00;60484.78;5033664;28;20033;-59
2023/03/22 01:55:32;;;;;;;24.37;14.37;;;;;;;-145.18;100.00;60484.78;5031977;28;20025;-60
2023/03/22 01:57:59;;;;;;;26.47;15.00;;;;;;;-145.18;100.00;60484.78;5034133;28;20036;-59
2023/03/22 02:04:03;;;;;;;20.92;12.20;;;;;;;-145.18;100.00;60484.78;5079639;22;20063;-63
2023/03/22 02:06:28;;;;;;;21.15;12.48;;;;;;;-145.18;100.00;60484.78;5074172;28;20437;-63
2023/03/22 02:08:57;;;;;;;20.17;11.20;;;;;;;-145.18;100.00;60484.78;5066749;28;20107;-63
2023/03/22 02:11:37;;;;;;;19.37;12.13;;;;;;;-145.18;100.00;60484.78;5063758;28;20531;-64
2023/03/22 02:14:41;;;;;;;23.93;11.33;;;;;;;-145.18;100.00;60484.78;5071054;28;20503;-63
2023/03/22 02:17:41;;;;;;;17.87;10.50;;;;;;;-145.18;100.00;60484.78;5002724;28;20510;-64
2023/03/22 02:20:59;;;;;;;16.67;9.80;;;;;;;-145.18;100.00;60484.78;5005704;28;20410;-63
2023/03/22 02:24:06;;;;;;;20.57;10.70;;;;;;;-145.18;100.00;60484.78;4958512;28;20454;-64
2023/03/22 02:27:18;;;;;;;19.33;10.77;;;;;;;-145.18;100.00;60484.78;4969067;28;20517;-64
2023/03/22 02:30:16;;;;;;;;;;;;;;;-145.18;100.00;60484.78;4970097;28;20043;-64
2023/03/22 02:33:04;;;;;;;18.33;10.47;;;;;;;-145.18;100.00;60484.78;4949437;28;20395;-63
2023/03/22 02:35:54;;;;;;;13.33;7.87;;;;;;;-145.18;100.00;60484.78;4952757;29;20647;-64
2023/03/22 02:39:03;;;;;;;18.23;9.60;;;;;;;-145.18;100.00;60484.78;4950906;28;20047;-64
2023/03/22 02:42:00;;;;;;;18.00;9.80;;;;;;;-145.18;100.00;60484.78;4942309;29;20043;-64
2023/03/22 02:44:44;;;;;;;18.97;10.20;;;;;;;-145.18;100.00;60484.78;4949823;28;20098;-63
2023/03/22 02:48:21;;;;;;;17.87;9.80;;;;;;;-145.18;100.00;60484.78;4950584;29;20042;-63
2023/03/22 02:51:18;;;;;;;17.00;8.87;;;;;;;-145.18;100.00;60484.78;4889307;29;20560;-63
2023/03/22 02:53:51;;;;;;;17.93;9.27;;;;;;;-145.18;100.00;60484.78;4931896;29;20551;-64
2023/03/22 02:56:32;;;;;;;17.67;9.67;;;;;;;-145.18;100.00;60484.78;4939227;28;20118;-63
2023/03/22 02:59:02;;;;;;;14.53;8.83;;;;;;;-145.18;100.00;60484.78;5000517;28;20042;-64
2023/03/22 03:01:32;;;;;;;19.03;8.97;;;;;;;-145.18;100.00;60484.78;4990674;28;20375;-64
2023/03/22 03:04:06;;;;;;;17.87;9.40;;;;;;;-145.18;100.00;60484.78;4991314;28;20398;-64
2023/03/22 03:06:38;;;;;;;15.63;8.80;;;;;;;-145.18;100.00;60484.78;4993980;28;20097;-64
2023/03/22 03:09:05;;;;;;;15.47;8.87;;;;;;;-145.18;100.00;60484.78;5019871;28;20662;-63
2023/03/22 03:11:30;;;;;;;15.07;9.03;;;;;;;-145.18;100.00;60484.78;5022597;28;20068;-64
2023/03/22 03:13:56;;;;;;;17.63;9.47;;;;;;;-145.18;100.00;60484.78;5025838;28;20532;-63
2023/03/22 03:16:26;;;;;;;16.60;8.93;;;;;;;-145.18;100.00;60484.78;5028056;28;20030;-64
2023/03/22 03:19:10;;;;;;;15.07;8.60;;;;;;;-145.18;100.00;60484.78;5028005;28;20104;-64
2023/03/22 03:21:57;;;;;;;15.27;8.87;;;;;;;-145.18;100.00;60484.78;5039588;28;20526;-63
2023/03/22 03:24:58;;;;;;;19.20;8.63;;;;;;;-145.18;100.00;60484.78;5057819;28;20024;-64
2023/03/22 03:27:35;;;;;;;15.43;8.90;;;;;;;-145.18;100.00;60484.78;5065272;28;20487;-64
2023/03/22 03:30:10;;;;;;;18.67;8.70;;;;;;;-145.18;100.00;60484.78;5064466;28;20029;-63
2023/03/22 03:32:51;;;;;;;13.50;8.20;;;;;;;-145.18;100.00;60484.78;5055014;28;20029;-64
2023/03/22 03:35:21;;;;;;;17.50;8.30;;;;;;;-145.18;100.00;60484.78;5065817;28;20528;-64
2023/03/22 03:38:08;;;;;;;17.37;8.03;;;;;;;-145.18;100.00;60484.78;5070324;28;20472;-64
2023/03/22 03:40:39;;;;;;;15.87;8.43;;;;;;;-145.18;100.00;60484.78;5070399;28;20115;-64
2023/03/22 03:43:06;;;;;;;17.73;8.15;;;;;;;-145.18;100.00;60484.78;5057002;28;20447;-64
2023/03/22 03:45:33;;;;;;;15.03;8.20;;;;;;;-145.18;100.00;60484.78;5067583;28;20031;-63
2023/03/22 03:48:02;;;;;;;13.13;8.07;;;;;;;-145.18;100.00;60484.78;5066253;28;20404;-64
2023/03/22 03:50:29;;;;;;;17.90;8.77;;;;;;;-145.18;100.00;60484.78;5069788;28;20032;-63
2023/03/22 03:52:55;;;;;;;17.97;8.10;;;;;;;-145.18;100.00;60484.78;5069996;28;20032;-63
2023/03/22 03:55:22;;;;;;;14.07;7.43;;;;;;;-145.18;100.00;60484.78;5058426;28;20039;-64
2023/03/22 03:57:47;;;;;;;18.70;7.47;;;;;;;-145.18;100.00;60484.78;5070771;28;20051;-64
2023/03/22 04:00:13;;;;;;;16.37;7.83;;;;;;;-145.18;100.00;60484.78;5056357;28;20032;-64
2023/03/22 04:02:40;;;;;;;14.90;8.10;;;;;;;-145.18;100.00;60484.78;5068469;28;20449;-64
2023/03/22 04:05:07;;;;;;;13.67;8.03;;;;;;;-145.18;100.00;60484.78;5065153;28;20028;-64
2023/03/22 04:07:33;;;;;;;15.57;8.30;;;;;;;-145.18;100.00;60484.78;5063331;28;20423;-63
2023/03/22 04:09:59;;;;;;;15.73;8.27;;;;;;;-145.18;100.00;60484.78;5072581;28;20103;-64
2023/03/22 04:12:24;;;;;;;13.23;8.03;;;;;;;-145.18;100.00;60484.78;5060036;28;20108;-63
2023/03/22 04:14:50;;;;;;;22.17;8.97;;;;;;;-145.18;100.00;60484.78;5058503;28;20488;-64
2023/03/22 04:17:15;;;;;;;17.70;8.80;;;;;;;-145.18;100.00;60484.78;5061193;28;20044;-63
2023/03/22 04:19:43;;;;;;;14.70;8.57;;;;;;;-145.18;100.00;60484.78;5070534;28;20029;-63
2023/03/22 04:22:13;;;;;;;13.37;8.63;;;;;;;-145.18;100.00;60484.78;5068109;28;20059;-64
2023/03/22 04:24:42;;;;;;;17.93;8.30;;;;;;;-145.18;100.00;60484.78;5054279;28;20476;-63
2023/03/22 04:27:07;;;;;;;15.63;8.80;;;;;;;-145.18;100.00;60484.78;5070874;28;20480;-64
2023/03/22 04:29:35;;;;;;;19.63;9.27;;;;;;;-145.18;100.00;60484.78;5066071;28;20028;-64
2023/03/22 04:32:04;;;;;;;17.17;8.83;;;;;;;-145.18;100.00;60484.78;5066236;28;20439;-64
2023/03/22 04:34:30;;;;;;;16.40;9.20;;;;;;;-145.18;100.00;60484.78;5063407;28;20027;-63
2023/03/22 04:36:56;;;;;;;14.70;8.70;;;;;;;-145.18;100.00;60484.78;5058590;28;20021;-64
2023/03/22 04:39:22;;;;;;;15.93;9.20;;;;;;;-145.18;100.00;60484.78;5066249;28;20101;-63
2023/03/22 04:41:47;;;;;;;16.93;9.67;;;;;;;-145.18;100.00;60484.78;5071328;28;20075;-64
2023/03/22 04:44:13;;;;;;;18.53;9.27;;;;;;;-145.18;100.00;60484.78;5067150;28;20024;-64
2023/03/22 04:46:38;;;;;;;18.37;10.70;;;;;;;-145.18;100.00;60484.78;5065857;28;20384;-63
2023/03/22 04:49:05;;;;;;;17.93;9.87;;;;;;;-145.18;100.00;60484.78;5075370;28;20050;-63
2023/03/22 04:51:31;;;;;;;19.10;9.47;;;;;;;-145.18;100.00;60484.78;5073095;28;20028;-64
2023/03/22 04:53:57;;;;;;;21.63;10.80;;;;;;;-145.18;100.00;60484.78;5071220;28;20369;-64
2023/03/22 04:56:23;;;;;;;21.97;10.37;;;;;;;-145.18;100.00;60484.78;5068241;28;20082;-63
2023/03/22 04:58:48;;;;;;;19.03;10.80;;;;;;;-145.18;100.00;60484.78;5070088;28;20025;-63
2023/03/22 05:01:16;;;;;;;16.40;10.23;;;;;;;-145.18;100.00;60484.78;5064547;28;20032;-63
2023/03/22 05:03:44;;;;;;;20.20;10.60;;;;;;;-145.18;100.00;60484.78;5067932;28;20095;-63
2023/03/22 05:06:10;;;;;;;19.93;10.73;;;;;;;-145.18;100.00;60484.78;5065818;28;20028;-63
2023/03/22 05:08:36;;;;;;;21.57;10.93;;;;;;;-145.18;100.00;60484.78;5070596;28;20028;-64
2023/03/22 05:11:08;;;;;;;26.20;11.70;;;;;;;-145.18;100.00;60484.78;5067642;28;20561;-64
2023/03/22 05:13:35;;;;;;;19.43;11.43;;;;;;;-145.18;100.00;60484.78;5069044;28;20024;-64
2023/03/22 05:16:00;;;;;;;20.40;10.57;;;;;;;-145.18;100.00;60484.78;5066272;28;20435;-64
2023/03/22 05:18:26;;;;;;;24.80;11.50;;;;;;;-145.18;100.00;60484.78;5062148;28;20034;-64
2023/03/22 05:20:54;;;;;;;24.47;11.27;;;;;;;-145.18;100.00;60484.78;5072553;28;20043;-64
2023/03/22 05:23:21;;;;;;;22.97;12.63;;;;;;;-145.18;100.00;60484.78;5071733;28;20026;-63
2023/03/22 05:25:48;;;;;;;20.47;11.73;;;;;;;-145.18;100.00;60484.78;5072528;28;20435;-64
2023/03/22 05:28:14;;;;;;;22.10;12.37;;;;;;;-145.18;100.00;60484.78;5072657;28;20119;-64
2023/03/22 05:30:43;;;;;;;22.70;12.40;;;;;;;-145.18;100.00;60484.78;5073148;28;20021;-64
2023/03/22 05:33:08;;;;;;;23.83;13.10;;;;;;;-145.18;100.00;60484.78;5071259;28;20036;-65
2023/03/22 05:35:36;;;;;;;24.90;12.77;;;;;;;-145.18;100.00;60484.78;5067431;28;20029;-64
2023/03/22 05:38:03;;;;;;;22.43;13.57;;;;;;;-145.18;100.00;60484.78;5066611;28;20048;-64
2023/03/22 05:40:29;;;;;;;30.07;14.10;;;;;;;-145.18;100.00;60484.78;5067795;28;20024;-64
2023/03/22 05:42:55;;;;;;;22.77;13.10;;;;;;;-145.18;100.00;60484.78;5061394;28;20028;-64
2023/03/22 05:45:21;;;;;;;21.47;12.97;;;;;;;-145.18;100.00;60484.78;5063342;28;20036;-64
2023/03/22 05:47:47;;;;;;;26.27;13.73;;;;;;;-145.18;100.00;60484.78;5069743;28;20452;-64
2023/03/22 05:50:15;;;;;;;20.07;13.27;;;;;;;-145.18;100.00;60484.78;5063108;28;20384;-64
2023/03/22 05:52:41;;;;;;;21.30;12.07;;;;;;;-145.18;100.00;60484.78;5063916;28;20119;-64
2023/03/22 05:55:08;;;;;;;22.80;11.97;;;;;;;-145.18;100.00;60484.78;5060947;28;20098;-64
2023/03/22 05:57:34;;;;;;;20.60;12.30;;;;;;;-145.18;100.00;60484.78;5068644;28;20023;-65
2023/03/22 06:00:00;;;;;;;21.17;12.23;;;;;;;-145.18;100.00;60484.78;5067690;28;20380;-64
2023/03/22 06:02:26;;;;;;;21.50;13.13;;;;;;;-145.18;100.00;60484.78;5063577;28;20067;-64
2023/03/22 06:04:52;;;;;;;19.23;11.67;;;;;;;-145.18;100.00;60484.78;5052775;28;20403;-64
2023/03/22 06:07:17;;;;;;;22.00;11.53;;;;;;;-145.18;100.00;60484.78;5062022;28;20028;-64
2023/03/22 06:09:43;;;;;;;20.13;11.73;;;;;;;-145.18;100.00;60484.78;5072574;28;20365;-64
2023/03/22 06:12:09;;;;;;;19.63;10.93;;;;;;;-145.18;100.00;60484.78;5072213;28;20052;-64
2023/03/22 06:14:35;;;;;;;23.10;12.10;;;;;;;-145.18;100.00;60484.78;5074184;28;20031;-64
2023/03/22 06:17:00;;;;;;;18.03;11.13;;;;;;;-145.18;100.00;60484.78;5073961;28;20388;-64
2023/03/22 06:19:26;;;;;;;23.43;11.20;;;;;;;-145.18;100.00;60484.78;5072658;28;20025;-65
2023/03/22 06:21:53;;;;;;;21.20;10.40;;;;;;;-145.18;100.00;60484.78;5073114;28;20032;-64
2023/03/22 06:24:19;;;;;;;18.10;10.50;;;;;;;-145.18;100.00;60484.78;5073815;28;20024;-64
2023/03/22 06:26:44;;;;;;;19.63;11.00;;;;;;;-145.18;100.00;60484.78;5071507;28;20042;-65
2023/03/22 06:29:10;;;;;;;19.37;10.77;;;;;;;-145.18;100.00;60484.78;5073690;28;20032;-64
2023/03/22 06:31:36;;;;;;;21.20;10.63;;;;;;;-145.18;100.00;60484.78;5069815;28;20061;-64
2023/03/22 06:34:02;;;;;;;17.40;10.17;;;;;;;-145.18;100.00;60484.78;5073661;28;20070;-64
2023/03/22 06:36:28;;;;;;;18.33;9.50;;;;;;;-145.18;100.00;60484.78;5076134;28;20099;-64
2023/03/22 06:38:54;;;;;;;16.60;9.67;;;;;;;-145.18;100.00;60484.78;5073505;28;20021;-64
2023/03/22 06:41:19;;;;;;;15.90;9.20;;;;;;;-145.18;100.00;60484.78;5059704;28;20376;-64
2023/03/22 06:43:45;;;;;;;13.70;8.27;;;;;;;-145.18;100.00;60484.78;5053630;28;20476;-64
2023/03/22 06:46:10;;;;;;;16.97;9.00;;;;;;;-145.18;100.00;60484.78;5053644;28;20025;-64
2023/03/22 06:48:36;;;;;;;14.50;8.60;;;;;;;-145.18;100.00;60484.78;5053649;28;20025;-64
2023/03/22 06:51:02;;;;;;;14.00;8.13;;;;;;;-145.18;100.00;60484.78;5067356;28;20039;-64
2023/03/22 06:53:27;;;;;;;13.80;7.63;;;;;;;-145.18;100.00;60484.78;5071689;28;20078;-64
2023/03/22 06:55:53;;;;;;;14.33;7.90;;;;;;;-145.18;100.00;60484.78;5070937;28;20025;-64
2023/03/22 06:58:18;;;;;;;14.77;8.10;;;;;;;-145.18;100.00;60484.78;5073314;28;20043;-65
2023/03/22 07:00:44;;;;;;;13.50;6.63;;;;;;;-145.18;100.00;60484.78;5073261;28;20025;-64
2023/03/22 07:03:09;;;;;;;14.47;7.70;;;;;;;-145.18;100.00;60484.78;5082887;28;20396;-64
2023/03/22 07:05:35;;;;;;;11.87;6.80;;;;;;;-145.18;100.00;60484.78;5091439;28;20071;-64
2023/03/22 07:08:01;;;;;;;14.10;7.50;;;;;;;-145.18;100.00;60484.78;5075581;28;20068;-64
2023/03/22 07:10:26;;;;;;;15.23;7.37;;;;;;;-145.18;100.00;60484.78;5071212;28;20024;-64
2023/03/22 07:12:52;;;;;;;16.80;8.20;;;;;;;-145.18;100.00;60484.78;5073444;28;20028;-65
2023/03/22 07:15:18;;;;;;;14.43;7.43;;;;;;;-145.18;100.00;60484.78;5073540;28;20028;-64
2023/03/22 07:17:44;;;;;;;12.50;7.07;;;;;;;-145.18;100.00;60484.78;5072977;28;20472;-63
2023/03/22 07:20:10;;;;;;;13.07;6.93;;;;;;;-145.18;100.00;60484.78;5072215;28;20081;-64
2023/03/22 07:22:35;;;;;;;12.70;6.50;;;;;;;-145.18;100.00;60484.78;5069778;28;20032;-65
2023/03/22 07:25:01;;;;;;;13.73;6.50;;;;;;;-145.18;100.00;60484.78;5073286;28;20040;-64
2023/03/22 07:27:26;;;;;;;11.63;6.40;;;;;;;-145.18;100.00;60484.78;5071338;28;20040;-63
2023/03/22 07:29:52;;;;;;;11.03;5.40;;;;;;;-145.18;100.00;60484.78;5073564;28;20483;-64
2023/03/22 07:32:17;;;;;;;11.17;4.90;;;;;;;-145.18;100.00;60484.78;5071474;28;20036;-64
2023/03/22 07:34:43;;;;;;;15.33;4.80;;;;;;;-145.18;100.00;60484.78;5071796;28;20040;-65
2023/03/22 07:37:08;;;;;;;9.93;4.77;;;;;;;-145.18;100.00;60484.78;5072952;28;20021;-65
2023/03/22 07:39:34;;;;;;;13.73;5.83;;;;;;;-145.18;100.00;60484.78;5073074;28;20020;-64
2023/03/22 07:41:59;;;;;;;14.33;5.60;;;;;;;-145.18;100.00;60484.78;5070702;28;20114;-64
2023/03/22 07:44:25;;;;;;;10.90;4.17;;;;;;;-145.18;100.00;60484.78;5073156;28;20108;-64
2023/03/22 07:46:51;;;;;;;10.00;4.40;;;;;;;-145.18;100.00;60484.78;5073152;28;20029;-64
2023/03/22 07:49:17;;;;;;;11.30;4.57;;;;;;;-145.18;100.00;60484.78;5073120;28;20090;-64
2023/03/22 07:51:43;;;;;;;12.50;4.87;;;;;;;-145.18;100.00;60484.78;5071127;28;20028;-64
2023/03/22 07:54:08;;;;;;;12.13;4.17;;;;;;;-145.18;100.00;60484.78;5072803;28;20035;-63
2023/03/22 07:56:34;;;;;;;10.80;4.00;;;;;;;-145.18;100.00;60484.78;5073525;28;20078;-64
2023/03/22 07:58:59;;;;;;;10.13;3.75;;;;;;;-145.18;100.00;60484.78;5072893;28;20480;-63
2023/03/22 08:01:25;;;;;;;12.48;4.20;;;;;;;-145.18;100.00;60484.78;5071075;28;20032;-63
2023/03/22 08:03:51;;;;;;;8.40;3.60;;;;;;;-145.18;100.00;60484.78;5071243;28;20036;-63
2023/03/22 08:06:18;;;;;;;7.68;3.15;;;;;;;-145.18;100.00;60484.78;5072763;28;20090;-63
2023/03/22 08:08:44;;;;;;;8.68;3.15;;;;;;;-145.18;100.00;60484.78;5072445;28;20035;-64
2023/03/22 08:11:11;;;;;;;9.57;3.65;;;;;;;-145.18;100.00;60484.78;5071033;28;20483;-64
2023/03/22 08:13:37;;;;;;;9.75;3.58;;;;;;;-145.18;100.00;60484.78;5072295;28;20032;-64
2023/03/22 08:16:02;;;;;;;13.85;4.75;;;;;;;-145.18;100.00;60484.78;5074433;28;20031;-63
2023/03/22 08:18:28;;;;;;;12.15;3.80;;;;;;;-145.18;100.00;60484.78;5076614;28;20032;-63
2023/03/22 08:20:55;;;;;;;9.45;3.30;;;;;;;-145.18;100.00;60484.78;5076287;28;20476;-63
2023/03/22 08:23:22;;;;;;;9.35;3.70;;;;;;;-145.18;100.00;60484.78;5076148;28;20488;-64
2023/03/22 08:25:47;;;;;;;8.05;3.13;;;;;;;-145.18;100.00;60484.78;5076415;28;20024;-64
2023/03/22 08:28:14;;;;;;;8.13;2.95;;;;;;;-145.18;100.00;60484.78;5075582;28;20035;-63
2023/03/22 08:30:41;;;;;;;7.00;3.10;;;;;;;-145.18;100.00;60484.78;5076163;28;20031;-63
2023/03/22 08:33:06;;;;;;;7.90;3.50;;;;;;;-145.18;100.00;60484.78;5075968;28;20029;-63
2023/03/22 08:35:32;;;;;;;9.18;3.10;;;;;;;-145.18;100.00;60484.78;5073726;28;20074;-63
2023/03/22 08:37:57;;;;;;;9.85;2.80;;;;;;;-145.18;100.00;60484.78;5075933;28;20108;-63
2023/03/22 08:40:23;;;;;;;7.07;2.40;;;;;;;-145.18;100.00;60484.78;5075373;28;20033;-63
2023/03/22 08:42:49;;;;;;;9.02;2.75;;;;;;;-145.18;100.00;60484.78;5073081;28;20048;-64
2023/03/22 08:45:15;;;;;;;6.00;2.30;;;;;;;-145.18;100.00;60484.78;5075962;28;20030;-64
2023/03/22 08:47:40;;;;;;;6.78;2.60;;;;;;;-145.18;100.00;60484.78;5075680;28;20050;-64
2023/03/22 08:50:07;;;;;;;8.20;2.78;;;;;;;-145.18;100.00;60484.78;5076026;28;20032;-63
2023/03/22 08:52:33;;;;;;;10.15;3.33;;;;;;;-145.18;100.00;60484.78;5073769;28;20030;-63
2023/03/22 08:54:59;;;;;;;8.95;3.05;;;;;;;-145.18;100.00;60484.78;5075320;28;20086;-65
2023/03/22 08:57:26;;;;;;;9.15;3.00;;;;;;;-145.18;100.00;60484.78;5075912;28;20033;-64
2023/03/22 08:59:52;;;;;;;6.88;2.60;;;;;;;-145.18;100.00;60484.78;5075457;28;20028;-65
2023/03/22 09:02:18;;;;;;;6.18;2.17;;;;;;;-145.18;100.00;60484.78;5060496;28;20116;-64
2023/03/22 09:04:43;;;;;;;11.57;3.47;;;;;;;-145.18;100.00;60484.78;5059627;28;20045;-64
2023/03/22 09:07:09;;;;;;;8.02;2.60;;;;;;;-145.18;100.00;60484.78;5075482;28;20031;-63
2023/03/22 09:09:35;;;;;;;5.47;1.90;;;;;;;-145.18;100.00;60484.78;5075511;28;20409;-66
2023/03/22 09:12:00;;;;;;;6.95;2.58;;;;;;;-145.18;100.00;60484.78;5073237;28;20024;-64
2023/03/22 09:14:26;;;;;;;8.27;2.70;;;;;;;-145.18;100.00;60484.78;5075242;28;20032;-63
2023/03/22 09:16:51;;;;;;;8.05;2.47;;;;;;;-145.18;100.00;60484.78;5075657;28;20032;-63
2023/03/22 09:19:17;;;;;;;7.85;3.08;;;;;;;-145.18;100.00;60484.78;5075039;28;20024;-63
2023/03/22 09:21:42;;;;;;;8.88;2.70;;;;;;;-145.18;100.00;60484.78;5074115;28;20028;-63
2023/03/22 09:24:08;;;;;;;7.50;2.58;;;;;;;-145.18;100.00;60484.78;5074681;28;20024;-64
2023/03/22 09:26:34;;;;;;;5.72;2.35;;;;;;;-145.18;100.00;60484.78;5073004;28;20469;-63
2023/03/22 09:28:59;;;;;;;6.05;2.20;;;;;;;-145.18;100.00;60484.78;5075089;28;20427;-65
2023/03/22 09:31:25;;;;;;;9.77;2.72;;;;;;;-145.18;100.00;60484.78;5075068;28;20082;-64
2023/03/22 09:33:50;;;;;;;6.68;2.08;;;;;;;-145.18;100.00;60484.78;5071727;28;20036;-64
2023/03/22 09:36:16;;;;;;;5.53;2.03;;;;;;;-145.18;100.00;60484.78;5077238;28;20484;-64
2023/03/22 09:38:41;;;;;;;6.93;2.65;;;;;;;-145.18;100.00;60484.78;5074312;28;20028;-64
2023/03/22 09:41:21;;;;;;;7.70;2.83;;;;;;;-145.18;100.00;60484.78;5074689;28;20025;-65
2023/03/22 09:43:55;;;;;;;8.38;3.13;;;;;;;-145.18;100.00;60484.78;5056212;28;20086;-64
2023/03/22 09:46:31;;;;;;;9.68;2.70;;;;;;;-145.18;100.00;60484.78;5054730;28;20029;-65
2023/03/22 09:49:00;;;;;;;10.30;3.42;;;;;;;-145.18;100.00;60484.78;5054701;28;20032;-64
2023/03/22 09:51:53;;;;;;;8.75;3.40;;;;;;;-145.18;100.00;60484.78;5054308;28;20037;-64
2023/03/22 09:54:26;;;;;;;9.75;3.90;;;;;;;-145.18;100.00;60484.78;5054115;28;20090;-64
2023/03/22 09:57:31;;;;;;;7.63;2.95;;;;;;;-145.18;100.00;60484.78;5077458;28;20056;-64
2023/03/22 10:00:47;;;;;;;5.87;2.87;;;;;;;-145.18;100.00;60484.78;4992991;28;20048;-64
2023/03/22 10:03:40;;;;;;;9.00;3.20;;;;;;;-145.18;100.00;60484.78;4976485;28;20406;-63
2023/03/22 10:06:18;;;;;;;7.23;3.07;;;;;;;-145.18;100.00;60484.78;4992413;28;20035;-63
2023/03/22 10:09:25;;;;;;;7.43;2.83;;;;;;;-145.18;100.00;60484.78;4992986;28;20034;-63
2023/03/22 10:12:22;;;;;;;8.37;2.10;;;;;;;-145.18;100.00;60484.78;4991918;28;20050;-65
2023/03/22 10:15:13;;;;;;;6.60;2.30;;;;;;;-145.18;100.00;60484.78;4992434;28;20034;-63
2023/03/22 10:17:43;;;;;;;10.80;2.70;;;;;;;-145.18;100.00;60484.78;4991826;28;20046;-63
2023/03/22 10:20:29;;;;;;;10.02;2.63;;;;;;;-145.18;100.00;60484.78;4992661;28;20494;-63
2023/03/22 10:22:56;;;;;;;7.30;2.43;;;;;;;-145.18;100.00;60484.78;4991763;28;20038;-65
2023/03/22 10:25:31;;;;;;;5.90;1.70;;;;;;;-145.18;100.00;60484.78;4984816;28;20134;-63
2023/03/22 10:27:57;;;;;;;8.23;2.03;;;;;;;-145.18;100.00;60484.78;4986584;28;20497;-65
2023/03/22 10:30:26;;;;;;;6.43;1.50;;;;;;;-145.18;100.00;60484.78;4991755;28;20070;-63
2023/03/22 10:33:03;;;;;;;7.53;1.50;;;;;;;-145.18;100.00;60484.78;4992554;28;20026;-64
2023/03/22 10:35:30;;;;;;;5.82;1.58;;;;;;;-145.18;100.00;60484.78;4993929;28;20074;-64
2023/03/22 10:37:59;;;;;;;7.03;1.40;;;;;;;-145.18;100.00;60484.78;5051969;28;20028;-64
2023/03/22 10:40:30;;;;;;;6.03;1.60;;;;;;;-145.18;100.00;60484.78;5053710;28;20100;-64
2023/03/22 10:43:05;;;;;;;5.97;1.60;;;;;;;-145.18;100.00;60484.78;5067876;28;20037;-63
2023/03/22 10:45:33;;;;;;;7.72;2.00;;;;;;;-145.18;100.00;60484.78;5073674;28;20396;-63
2023/03/22 10:48:09;;;;;;;6.97;1.77;;;;;;;-145.18;100.00;60484.78;5073421;28;20162;-64
2023/03/22 10:50:37;;;;;;;6.65;1.60;;;;;;;-145.18;100.00;60484.78;5073484;28;20044;-64
2023/03/22 10:53:48;;;;;;;6.72;1.70;;;;;;;-145.18;100.00;60484.78;5072488;28;20484;-64
2023/03/22 10:56:17;;;;;;;5.30;1.38;;;;;;;-145.18;100.00;60484.78;4999489;28;20041;-64
2023/03/22 10:58:43;;;;;;;2.50;1.10;;;;;;;-145.18;100.00;60484.78;4979003;28;20038;-64
2023/03/22 11:01:15;;;;;;;7.18;1.60;;;;;;;-145.18;100.00;60484.78;4992440;28;20089;-64
2023/03/22 11:03:44;;;;;;;5.80;1.60;;;;;;;-145.18;100.00;60484.78;4987467;28;20049;-64
2023/03/22 11:06:14;;;;;;;6.00;1.58;;;;;;;-145.18;100.00;60484.78;4972497;28;20546;-65
2023/03/22 11:09:02;;;;;;;10.33;1.60;;;;;;;-145.18;100.00;60484.78;4988535;28;20042;-63
2023/03/22 11:11:37;;;;;;;7.50;1.65;;;;;;;-145.18;100.00;60484.78;4990877;28;20828;-63
2023/03/22 11:14:27;;;;;;;5.75;1.30;;;;;;;-145.18;100.00;60484.78;4982227;28;20060;-64
2023/03/22 11:17:12;;;;;;;9.25;2.17;;;;;;;-145.18;100.00;60484.78;4991777;28;20538;-63
2023/03/22 11:19:41;;;;;;;7.55;1.60;;;;;;;-145.18;100.00;60484.78;4991595;28;20034;-64